sensor_id;sensor_type;location;lat;lon;timestamp;pressure;altitude;pressure_sealevel;temperature;humidity
10460;BME280;54412;51.206;6.888;2022-08-01T00:00:42;100946.81;;;22.36;76.07
10460;BME280;54412;51.206;6.888;2022-08-01T00:03:07;100951.66;;;22.23;76.48
10460;BME280;54412;51.206;6.888;2022-08-01T00:05:33;100946.09;;;22.34;76.09
10460;BME280;54412;51.206;6.888;2022-08-01T00:07:59;100945.69;;;22.29;76.44
10460;BME280;54412;51.206;6.888;2022-08-01T00:10:25;100945.13;;;22.35;75.87
10460;BME280;54412;51.206;6.888;2022-08-01T00:12:50;100943.16;;;22.18;76.48
10460;BME280;54412;51.206;6.888;2022-08-01T00:15:17;100950.66;;;22.34;76.52
10460;BME280;54412;51.206;6.888;2022-08-01T00:17:43;100940.31;;;22.39;75.93
10460;BME280;54412;51.206;6.888;2022-08-01T00:20:13;100948.38;;;22.29;76.29
10460;BME280;54412;51.206;6.888;2022-08-01T00:22:39;100939.59;;;22.37;75.66
10460;BME280;54412;51.206;6.888;2022-08-01T00:25:06;100942.28;;;22.27;76.08
10460;BME280;54412;51.206;6.888;2022-08-01T00:27:32;100946.28;;;22.23;76.76
10460;BME280;54412;51.206;6.888;2022-08-01T00:29:58;100942.28;;;22.37;76.16
10460;BME280;54412;51.206;6.888;2022-08-01T00:32:24;100946.28;;;22.23;76.41
10460;BME280;54412;51.206;6.888;2022-08-01T00:34:50;100947.09;;;22.33;76.27
10460;BME280;54412;51.206;6.888;2022-08-01T00:37:16;100952.72;;;22.40;76.22
10460;BME280;54412;51.206;6.888;2022-08-01T00:39:42;100944.28;;;22.25;75.90
10460;BME280;54412;51.206;6.888;2022-08-01T00:42:12;100950.09;;;22.30;75.42
10460;BME280;54412;51.206;6.888;2022-08-01T00:44:39;100943.69;;;22.31;75.79
10460;BME280;54412;51.206;6.888;2022-08-01T00:47:06;100941.72;;;22.43;75.51
10460;BME280;54412;51.206;6.888;2022-08-01T00:49:33;100947.25;;;22.32;74.63
10460;BME280;54412;51.206;6.888;2022-08-01T00:51:59;100943.84;;;22.39;74.82
10460;BME280;54412;51.206;6.888;2022-08-01T00:54:27;100939.59;;;22.37;74.63
10460;BME280;54412;51.206;6.888;2022-08-01T00:56:54;100945.28;;;22.34;74.95
10460;BME280;54412;51.206;6.888;2022-08-01T00:59:22;100936.91;;;22.27;74.70
10460;BME280;54412;51.206;6.888;2022-08-01T01:01:48;100942.31;;;22.18;75.31
10460;BME280;54412;51.206;6.888;2022-08-01T01:04:14;100934.97;;;22.20;75.21
10460;BME280;54412;51.206;6.888;2022-08-01T01:07:09;100940.03;;;22.13;74.97
10460;BME280;54412;51.206;6.888;2022-08-01T01:12:33;100942.75;;;22.13;74.75
10460;BME280;54412;51.206;6.888;2022-08-01T01:15:17;100937.97;;;22.07;75.31
10460;BME280;54412;51.206;6.888;2022-08-01T01:18:07;100938.50;;;22.01;75.75
10460;BME280;54412;51.206;6.888;2022-08-01T01:20:39;100951.81;;;22.12;75.51
10460;BME280;54412;51.206;6.888;2022-08-01T01:29:44;100939.34;;;22.11;74.37
10460;BME280;54412;51.206;6.888;2022-08-01T01:32:20;100943.00;;;22.29;73.77
10460;BME280;54412;51.206;6.888;2022-08-01T01:34:50;100933.25;;;22.19;74.12
10460;BME280;54412;51.206;6.888;2022-08-01T01:37:23;100946.53;;;22.30;73.26
10460;BME280;54412;51.206;6.888;2022-08-01T01:39:52;100947.41;;;22.11;74.00
10460;BME280;54412;51.206;6.888;2022-08-01T01:42:20;100951.22;;;22.18;74.14
10460;BME280;54412;51.206;6.888;2022-08-01T01:44:50;100947.69;;;22.18;73.93
10460;BME280;54412;51.206;6.888;2022-08-01T01:47:17;100950.66;;;22.15;74.13
10460;BME280;54412;51.206;6.888;2022-08-01T01:49:46;100948.00;;;22.05;74.35
10460;BME280;54412;51.206;6.888;2022-08-01T01:52:16;100948.56;;;22.09;74.45
10460;BME280;54412;51.206;6.888;2022-08-01T01:54:49;100948.25;;;22.12;74.48
10460;BME280;54412;51.206;6.888;2022-08-01T01:57:18;100950.94;;;22.02;74.69
10460;BME280;54412;51.206;6.888;2022-08-01T01:59:46;100946.28;;;22.04;74.53
10460;BME280;54412;51.206;6.888;2022-08-01T02:02:14;100949.09;;;22.03;74.68
10460;BME280;54412;51.206;6.888;2022-08-01T02:04:44;100949.66;;;22.06;74.86
10460;BME280;54412;51.206;6.888;2022-08-01T02:07:16;100948.97;;;22.04;74.99
10460;BME280;54412;51.206;6.888;2022-08-01T02:09:43;100938.25;;;21.95;75.45
10460;BME280;54412;51.206;6.888;2022-08-01T02:12:12;100947.72;;;21.89;76.08
10460;BME280;54412;51.206;6.888;2022-08-01T02:14:41;100943.03;;;21.91;74.96
10460;BME280;54412;51.206;6.888;2022-08-01T02:17:12;100935.84;;;22.11;74.99
10460;BME280;54412;51.206;6.888;2022-08-01T02:19:42;100947.28;;;22.03;74.64
10460;BME280;54412;51.206;6.888;2022-08-01T02:22:33;100935.66;;;21.93;74.96
10460;BME280;54412;51.206;6.888;2022-08-01T02:25:06;100940.19;;;22.02;74.36
10460;BME280;54412;51.206;6.888;2022-08-01T02:28:01;100945.16;;;21.97;74.50
10460;BME280;54412;51.206;6.888;2022-08-01T02:30:34;100946.13;;;22.06;74.22
10460;BME280;54412;51.206;6.888;2022-08-01T02:33:10;100942.59;;;21.86;75.22
10460;BME280;54412;51.206;6.888;2022-08-01T02:35:41;100942.03;;;21.92;74.60
10460;BME280;54412;51.206;6.888;2022-08-01T02:38:10;100934.53;;;21.86;74.71
10460;BME280;54412;51.206;6.888;2022-08-01T02:40:45;100938.38;;;21.84;75.38
10460;BME280;54412;51.206;6.888;2022-08-01T02:43:12;100932.88;;;21.85;75.73
10460;BME280;54412;51.206;6.888;2022-08-01T02:45:45;100925.22;;;22.00;75.23
10460;BME280;54412;51.206;6.888;2022-08-01T02:48:15;100936.66;;;21.83;75.21
10460;BME280;54412;51.206;6.888;2022-08-01T02:50:47;100936.50;;;21.84;75.25
10460;BME280;54412;51.206;6.888;2022-08-01T02:53:16;100929.88;;;21.98;75.04
10460;BME280;54412;51.206;6.888;2022-08-01T02:55:44;100939.66;;;21.89;75.38
10460;BME280;54412;51.206;6.888;2022-08-01T02:58:15;100931.44;;;21.91;75.19
10460;BME280;54412;51.206;6.888;2022-08-01T03:00:44;100935.53;;;21.85;75.77
10460;BME280;54412;51.206;6.888;2022-08-01T03:03:13;100931.44;;;21.81;76.25
10460;BME280;54412;51.206;6.888;2022-08-01T03:05:41;100926.94;;;21.82;76.12
10460;BME280;54412;51.206;6.888;2022-08-01T03:08:09;100924.94;;;21.84;76.19
10460;BME280;54412;51.206;6.888;2022-08-01T03:10:38;100934.41;;;21.97;75.04
10460;BME280;54412;51.206;6.888;2022-08-01T03:13:08;100932.44;;;21.80;75.94
10460;BME280;54412;51.206;6.888;2022-08-01T03:15:39;100944.72;;;21.92;75.75
10460;BME280;54412;51.206;6.888;2022-08-01T03:18:09;100934.50;;;21.67;76.54
10460;BME280;54412;51.206;6.888;2022-08-01T03:20:35;100935.94;;;21.80;76.03
10460;BME280;54412;51.206;6.888;2022-08-01T03:23:06;100944.28;;;21.97;75.24
10460;BME280;54412;51.206;6.888;2022-08-01T03:25:38;100939.66;;;21.89;75.95
10460;BME280;54412;51.206;6.888;2022-08-01T03:28:06;100940.34;;;21.91;75.11
10460;BME280;54412;51.206;6.888;2022-08-01T03:30:35;100947.72;;;21.89;75.82
10460;BME280;54412;51.206;6.888;2022-08-01T03:33:02;100945.44;;;21.85;75.70
10460;BME280;54412;51.206;6.888;2022-08-01T03:35:37;100956.16;;;21.85;74.95
10460;BME280;54412;51.206;6.888;2022-08-01T03:38:07;100952.22;;;21.89;74.50
10460;BME280;54412;51.206;6.888;2022-08-01T03:40:40;100954.50;;;21.84;75.17
10460;BME280;54412;51.206;6.888;2022-08-01T03:43:26;100950.09;;;21.83;75.16
10460;BME280;54412;51.206;6.888;2022-08-01T03:46:02;100945.13;;;21.78;75.26
10460;BME280;54412;51.206;6.888;2022-08-01T03:48:39;100951.38;;;21.88;74.94
10460;BME280;54412;51.206;6.888;2022-08-01T03:51:07;100952.47;;;21.76;74.74
10460;BME280;54412;51.206;6.888;2022-08-01T03:53:36;100949.25;;;21.82;75.09
10460;BME280;54412;51.206;6.888;2022-08-01T03:56:04;100947.09;;;21.76;75.34
10460;BME280;54412;51.206;6.888;2022-08-01T03:58:30;100950.91;;;21.73;76.00
10460;BME280;54412;51.206;6.888;2022-08-01T04:00:57;100947.81;;;21.78;75.15
10460;BME280;54412;51.206;6.888;2022-08-01T04:03:25;100955.56;;;21.71;75.12
10460;BME280;54412;51.206;6.888;2022-08-01T04:05:51;100943.59;;;21.85;75.07
10460;BME280;54412;51.206;6.888;2022-08-01T04:08:16;100951.66;;;21.85;75.44
10460;BME280;54412;51.206;6.888;2022-08-01T04:10:42;100950.75;;;21.75;75.49
10460;BME280;54412;51.206;6.888;2022-08-01T04:13:08;100953.34;;;21.86;75.20
10460;BME280;54412;51.206;6.888;2022-08-01T04:15:34;100950.50;;;21.78;75.29
10460;BME280;54412;51.206;6.888;2022-08-01T04:18:00;100951.59;;;21.66;75.86
10460;BME280;54412;51.206;6.888;2022-08-01T04:20:25;100951.47;;;21.77;75.64
10460;BME280;54412;51.206;6.888;2022-08-01T04:22:51;100948.78;;;21.77;75.73
10460;BME280;54412;51.206;6.888;2022-08-01T04:25:35;100946.69;;;21.80;75.90
10460;BME280;54412;51.206;6.888;2022-08-01T04:28:05;100958.41;;;21.60;77.15
10460;BME280;54412;51.206;6.888;2022-08-01T04:30:37;100950.75;;;21.75;76.96
10460;BME280;54412;51.206;6.888;2022-08-01T04:33:07;100960.53;;;21.76;76.45
10460;BME280;54412;51.206;6.888;2022-08-01T04:35:38;100962.63;;;21.72;77.22
10460;BME280;54412;51.206;6.888;2022-08-01T04:38:08;100961.84;;;21.82;76.59
10460;BME280;54412;51.206;6.888;2022-08-01T04:40:36;100969.59;;;21.85;76.84
10460;BME280;54412;51.206;6.888;2022-08-01T04:43:02;100967.47;;;21.78;77.32
10460;BME280;54412;51.206;6.888;2022-08-01T04:45:28;100967.91;;;21.93;76.44
10460;BME280;54412;51.206;6.888;2022-08-01T04:47:55;100968.63;;;21.86;76.61
10460;BME280;54412;51.206;6.888;2022-08-01T04:50:22;100974.41;;;21.81;76.91
10460;BME280;54412;51.206;6.888;2022-08-01T04:52:48;100977.53;;;21.96;76.63
10460;BME280;54412;51.206;6.888;2022-08-01T04:55:14;100974.00;;;21.86;76.80
10460;BME280;54412;51.206;6.888;2022-08-01T04:57:42;100977.50;;;21.86;76.54
10460;BME280;54412;51.206;6.888;2022-08-01T05:00:10;100976.25;;;22.00;76.31
10460;BME280;54412;51.206;6.888;2022-08-01T05:02:36;100989.06;;;21.77;76.98
10460;BME280;54412;51.206;6.888;2022-08-01T05:05:03;100983.31;;;21.91;76.77
10460;BME280;54412;51.206;6.888;2022-08-01T05:07:32;100993.91;;;22.02;76.69
10460;BME280;54412;51.206;6.888;2022-08-01T05:09:58;100996.19;;;21.97;76.59
10460;BME280;54412;51.206;6.888;2022-08-01T05:12:24;100993.22;;;22.10;76.20
10460;BME280;54412;51.206;6.888;2022-08-01T05:14:50;100999.84;;;22.06;75.70
10460;BME280;54412;51.206;6.888;2022-08-01T05:17:16;100992.66;;;22.06;74.97
10460;BME280;54412;51.206;6.888;2022-08-01T05:19:42;100993.34;;;21.99;75.83
10460;BME280;54412;51.206;6.888;2022-08-01T05:22:09;100996.75;;;22.01;75.50
10460;BME280;54412;51.206;6.888;2022-08-01T05:24:38;101000.84;;;21.95;75.74
10460;BME280;54412;51.206;6.888;2022-08-01T05:27:04;100994.91;;;22.01;75.12
10460;BME280;54412;51.206;6.888;2022-08-01T05:29:30;100993.50;;;21.97;75.21
10460;BME280;54412;51.206;6.888;2022-08-01T05:31:56;100999.16;;;21.94;75.53
10460;BME280;54412;51.206;6.888;2022-08-01T05:34:23;100999.56;;;21.90;75.63
10460;BME280;54412;51.206;6.888;2022-08-01T05:36:49;101005.09;;;21.98;75.69
10460;BME280;54412;51.206;6.888;2022-08-01T05:39:14;101005.25;;;21.96;75.77
10460;BME280;54412;51.206;6.888;2022-08-01T05:41:41;101011.91;;;22.02;75.67
10460;BME280;54412;51.206;6.888;2022-08-01T05:44:07;101005.94;;;22.08;75.57
10460;BME280;54412;51.206;6.888;2022-08-01T05:46:34;101017.84;;;22.05;75.36
10460;BME280;54412;51.206;6.888;2022-08-01T05:49:02;101010.06;;;22.21;74.67
10460;BME280;54412;51.206;6.888;2022-08-01T05:51:28;101002.97;;;22.20;75.01
10460;BME280;54412;51.206;6.888;2022-08-01T05:53:55;101014.16;;;22.16;75.07
10460;BME280;54412;51.206;6.888;2022-08-01T05:56:21;101018.25;;;22.29;74.85
10460;BME280;54412;51.206;6.888;2022-08-01T05:58:48;101020.06;;;22.38;74.40
10460;BME280;54412;51.206;6.888;2022-08-01T06:01:15;101019.81;;;22.41;74.02
10460;BME280;54412;51.206;6.888;2022-08-01T06:03:41;101015.16;;;22.34;74.31
10460;BME280;54412;51.206;6.888;2022-08-01T06:06:07;101015.16;;;22.34;74.30
10460;BME280;54412;51.206;6.888;2022-08-01T06:08:33;101019.25;;;22.19;74.72
10460;BME280;54412;51.206;6.888;2022-08-01T06:10:58;101013.00;;;22.28;74.74
10460;BME280;54412;51.206;6.888;2022-08-01T06:13:25;101017.53;;;22.46;74.07
10460;BME280;54412;51.206;6.888;2022-08-01T06:15:51;101022.22;;;22.54;72.76
10460;BME280;54412;51.206;6.888;2022-08-01T06:18:17;101019.97;;;22.59;72.10
10460;BME280;54412;51.206;6.888;2022-08-01T06:20:43;101023.47;;;22.31;73.15
10460;BME280;54412;51.206;6.888;2022-08-01T06:23:09;101017.81;;;22.53;72.46
10460;BME280;54412;51.206;6.888;2022-08-01T06:25:35;101017.09;;;22.51;72.79
10460;BME280;54412;51.206;6.888;2022-08-01T06:28:01;101014.13;;;22.63;72.14
10460;BME280;54412;51.206;6.888;2022-08-01T06:30:27;101008.06;;;22.61;71.72
10460;BME280;54412;51.206;6.888;2022-08-01T06:32:53;101011.84;;;22.78;70.99
10460;BME280;54412;51.206;6.888;2022-08-01T06:35:21;101011.44;;;22.73;71.23
10460;BME280;54412;51.206;6.888;2022-08-01T06:37:47;101012.81;;;22.87;71.05
10460;BME280;54412;51.206;6.888;2022-08-01T06:40:14;101006.03;;;22.83;71.31
10460;BME280;54412;51.206;6.888;2022-08-01T06:42:40;101006.09;;;23.10;70.26
10460;BME280;54412;51.206;6.888;2022-08-01T06:45:10;101010.56;;;22.92;70.54
10460;BME280;54412;51.206;6.888;2022-08-01T06:47:38;101006.44;;;22.97;70.64
10460;BME280;54412;51.206;6.888;2022-08-01T06:50:06;101006.28;;;22.89;70.29
10460;BME280;54412;51.206;6.888;2022-08-01T06:52:33;101011.84;;;22.78;71.07
10460;BME280;54412;51.206;6.888;2022-08-01T06:54:59;101000.66;;;22.83;71.01
10460;BME280;54412;51.206;6.888;2022-08-01T06:57:25;101009.44;;;23.21;69.71
10460;BME280;54412;51.206;6.888;2022-08-01T06:59:50;101017.28;;;23.05;70.77
10460;BME280;54412;51.206;6.888;2022-08-01T07:02:16;101017.88;;;22.99;70.91
10460;BME280;54412;51.206;6.888;2022-08-01T07:04:42;101015.72;;;23.03;70.65
10460;BME280;54412;51.206;6.888;2022-08-01T07:07:08;101013.66;;;22.87;71.35
10460;BME280;54412;51.206;6.888;2022-08-01T07:09:33;101014.19;;;23.00;71.25
10460;BME280;54412;51.206;6.888;2022-08-01T07:11:59;101022.59;;;23.34;69.91
10460;BME280;54412;51.206;6.888;2022-08-01T07:14:25;101017.59;;;23.39;69.04
10460;BME280;54412;51.206;6.888;2022-08-01T07:16:51;101015.16;;;23.45;68.51
10460;BME280;54412;51.206;6.888;2022-08-01T07:19:18;101017.78;;;23.55;67.85
10460;BME280;54412;51.206;6.888;2022-08-01T07:21:44;101013.25;;;23.55;66.21
10460;BME280;54412;51.206;6.888;2022-08-01T07:24:13;101017.78;;;23.55;66.58
10460;BME280;54412;51.206;6.888;2022-08-01T07:26:44;101014.84;;;23.48;67.12
10460;BME280;54412;51.206;6.888;2022-08-01T07:29:09;101022.91;;;23.58;65.19
10460;BME280;54412;51.206;6.888;2022-08-01T07:31:35;101026.88;;;23.54;64.99
10460;BME280;54412;51.206;6.888;2022-08-01T07:34:01;101026.38;;;23.41;65.89
10460;BME280;54412;51.206;6.888;2022-08-01T07:36:26;101032.78;;;23.21;66.61
10460;BME280;54412;51.206;6.888;2022-08-01T07:38:52;101033.16;;;23.45;66.12
10460;BME280;54412;51.206;6.888;2022-08-01T07:41:18;101027.97;;;23.61;65.92
10460;BME280;54412;51.206;6.888;2022-08-01T07:43:44;101031.88;;;23.76;64.54
10460;BME280;54412;51.206;6.888;2022-08-01T07:46:09;101033.00;;;23.73;64.72
10460;BME280;54412;51.206;6.888;2022-08-01T07:48:35;101037.16;;;23.85;63.62
10460;BME280;54412;51.206;6.888;2022-08-01T07:51:00;101036.38;;;23.75;63.57
10460;BME280;54412;51.206;6.888;2022-08-01T07:53:26;101038.38;;;23.73;63.78
10460;BME280;54412;51.206;6.888;2022-08-01T07:55:52;101049.84;;;24.03;62.51
10460;BME280;54412;51.206;6.888;2022-08-01T07:58:18;101046.34;;;23.93;62.73
10460;BME280;54412;51.206;6.888;2022-08-01T08:00:43;101047.88;;;24.05;62.18
10460;BME280;54412;51.206;6.888;2022-08-01T08:03:09;101047.88;;;23.95;62.41
10460;BME280;54412;51.206;6.888;2022-08-01T08:05:35;101048.72;;;24.05;60.97
10460;BME280;54412;51.206;6.888;2022-08-01T08:08:05;101049.09;;;23.83;62.04
10460;BME280;54412;51.206;6.888;2022-08-01T08:10:32;101051.41;;;23.78;62.42
10460;BME280;54412;51.206;6.888;2022-08-01T08:12:58;101038.97;;;23.67;63.06
10460;BME280;54412;51.206;6.888;2022-08-01T08:15:24;101048.97;;;23.57;62.79
10460;BME280;54412;51.206;6.888;2022-08-01T08:17:50;101055.25;;;23.48;63.22
10460;BME280;54412;51.206;6.888;2022-08-01T08:20:16;101045.69;;;23.63;63.50
10460;BME280;54412;51.206;6.888;2022-08-01T08:22:41;101043.94;;;23.72;63.03
10460;BME280;54412;51.206;6.888;2022-08-01T08:25:08;101047.81;;;23.87;62.28
10460;BME280;54412;51.206;6.888;2022-08-01T08:27:35;101045.88;;;23.97;61.66
10460;BME280;54412;51.206;6.888;2022-08-01T08:30:01;101047.56;;;24.43;61.24
10460;BME280;54412;51.206;6.888;2022-08-01T08:32:27;101046.56;;;24.44;61.12
10460;BME280;54412;51.206;6.888;2022-08-01T08:34:53;101056.16;;;24.29;60.89
10460;BME280;54412;51.206;6.888;2022-08-01T08:37:18;101052.78;;;24.09;61.48
10460;BME280;54412;51.206;6.888;2022-08-01T08:39:44;101060.47;;;24.04;61.06
10460;BME280;54412;51.206;6.888;2022-08-01T08:42:11;101063.66;;;23.90;62.25
10460;BME280;54412;51.206;6.888;2022-08-01T08:44:40;101063.81;;;23.89;62.09
10460;BME280;54412;51.206;6.888;2022-08-01T08:47:07;101062.47;;;23.75;62.12
10460;BME280;54412;51.206;6.888;2022-08-01T08:49:33;101062.84;;;23.80;62.68
10460;BME280;54412;51.206;6.888;2022-08-01T08:52:02;101063.63;;;23.72;63.55
10460;BME280;54412;51.206;6.888;2022-08-01T08:54:30;101067.97;;;24.10;62.10
10460;BME280;54412;51.206;6.888;2022-08-01T08:56:58;101063.75;;;24.43;61.74
10460;BME280;54412;51.206;6.888;2022-08-01T08:59:25;101061.72;;;24.80;59.91
10460;BME280;54412;51.206;6.888;2022-08-01T09:01:51;101060.78;;;25.15;59.67
10460;BME280;54412;51.206;6.888;2022-08-01T09:04:17;101065.09;;;25.33;57.90
10460;BME280;54412;51.206;6.888;2022-08-01T09:06:43;101066.03;;;25.42;55.67
10460;BME280;54412;51.206;6.888;2022-08-01T09:09:10;101066.44;;;25.04;56.54
10460;BME280;54412;51.206;6.888;2022-08-01T09:11:37;101069.75;;;24.98;57.38
10460;BME280;54412;51.206;6.888;2022-08-01T09:14:17;101078.88;;;24.97;57.83
10460;BME280;54412;51.206;6.888;2022-08-01T09:17:05;101074.25;;;25.40;56.29
10460;BME280;54412;51.206;6.888;2022-08-01T09:19:41;101075.88;;;25.59;56.08
10460;BME280;54412;51.206;6.888;2022-08-01T09:22:14;101078.91;;;25.56;55.22
10460;BME280;54412;51.206;6.888;2022-08-01T09:25:08;101077.09;;;25.64;56.33
10460;BME280;54412;51.206;6.888;2022-08-01T09:27:35;101082.25;;;25.92;55.47
10460;BME280;54412;51.206;6.888;2022-08-01T09:30:11;101079.03;;;25.96;54.85
10460;BME280;54412;51.206;6.888;2022-08-01T09:32:57;101075.16;;;25.91;55.06
10460;BME280;54412;51.206;6.888;2022-08-01T09:35:31;101079.50;;;26.41;53.12
10460;BME280;54412;51.206;6.888;2022-08-01T09:38:22;101078.34;;;26.52;53.15
10460;BME280;54412;51.206;6.888;2022-08-01T09:40:57;101077.31;;;26.37;50.78
10460;BME280;54412;51.206;6.888;2022-08-01T09:43:27;101077.66;;;25.76;51.30
10460;BME280;54412;51.206;6.888;2022-08-01T09:45:53;101077.19;;;25.89;52.51
10460;BME280;54412;51.206;6.888;2022-08-01T09:48:21;101079.97;;;26.13;52.33
10460;BME280;54412;51.206;6.888;2022-08-01T09:50:52;101084.03;;;26.17;52.85
10460;BME280;54412;51.206;6.888;2022-08-01T09:53:19;101088.78;;;26.15;52.95
10460;BME280;54412;51.206;6.888;2022-08-01T09:55:45;101080.31;;;26.18;51.72
10460;BME280;54412;51.206;6.888;2022-08-01T09:58:11;101083.56;;;26.37;51.94
10460;BME280;54412;51.206;6.888;2022-08-01T10:00:39;101094.22;;;26.31;52.50
10460;BME280;54412;51.206;6.888;2022-08-01T10:03:20;101080.19;;;26.43;52.42
10460;BME280;54412;51.206;6.888;2022-08-01T10:05:46;101085.13;;;26.72;52.34
10460;BME280;54412;51.206;6.888;2022-08-01T10:08:13;101085.63;;;26.92;52.09
10460;BME280;54412;51.206;6.888;2022-08-01T10:10:39;101077.84;;;27.13;51.36
10460;BME280;54412;51.206;6.888;2022-08-01T10:13:05;101058.69;;;27.30;50.58
10460;BME280;54412;51.206;6.888;2022-08-01T10:15:32;101080.13;;;27.48;50.29
10460;BME280;54412;51.206;6.888;2022-08-01T10:18:02;101072.31;;;27.61;49.17
10460;BME280;54412;51.206;6.888;2022-08-01T10:20:32;101073.91;;;27.39;48.63
10460;BME280;54412;51.206;6.888;2022-08-01T10:23:02;101066.78;;;27.38;48.52
10460;BME280;54412;51.206;6.888;2022-08-01T10:25:36;101071.22;;;27.15;50.58
10460;BME280;54412;51.206;6.888;2022-08-01T10:28:16;101080.06;;;26.77;51.53
10460;BME280;54412;51.206;6.888;2022-08-01T10:30:44;101076.19;;;26.79;50.54
10460;BME280;54412;51.206;6.888;2022-08-01T10:33:11;101077.88;;;26.72;50.89
10460;BME280;54412;51.206;6.888;2022-08-01T10:35:39;101082.41;;;27.04;50.34
10460;BME280;54412;51.206;6.888;2022-08-01T10:38:05;101078.31;;;27.32;49.45
10460;BME280;54412;51.206;6.888;2022-08-01T10:40:32;101079.09;;;27.49;48.66
10460;BME280;54412;51.206;6.888;2022-08-01T10:42:58;101084.63;;;27.63;46.91
10460;BME280;54412;51.206;6.888;2022-08-01T10:45:25;101080.63;;;27.51;47.02
10460;BME280;54412;51.206;6.888;2022-08-01T10:48:20;101074.75;;;27.78;47.06
10460;BME280;54412;51.206;6.888;2022-08-01T10:50:52;101074.22;;;27.44;47.92
10460;BME280;54412;51.206;6.888;2022-08-01T10:53:22;101073.78;;;27.63;48.01
10460;BME280;54412;51.206;6.888;2022-08-01T10:55:58;101059.63;;;27.53;48.04
10460;BME280;54412;51.206;6.888;2022-08-01T10:58:33;101076.19;;;27.58;47.90
10460;BME280;54412;51.206;6.888;2022-08-01T11:01:18;101064.25;;;27.37;47.88
10460;BME280;54412;51.206;6.888;2022-08-01T11:04:10;101073.59;;;27.18;48.56
10460;BME280;54412;51.206;6.888;2022-08-01T11:07:12;101072.41;;;27.05;48.37
10460;BME280;54412;51.206;6.888;2022-08-01T11:09:44;101071.34;;;27.30;48.21
10460;BME280;54412;51.206;6.888;2022-08-01T11:12:14;101073.59;;;27.34;48.41
10460;BME280;54412;51.206;6.888;2022-08-01T11:17:38;101070.41;;;27.61;48.49
10460;BME280;54412;51.206;6.888;2022-08-01T11:20:23;101064.88;;;27.85;46.56
10460;BME280;54412;51.206;6.888;2022-08-01T11:30:47;101064.72;;;27.87;44.23
10460;BME280;54412;51.206;6.888;2022-08-01T11:33:16;101062.44;;;27.68;44.67
10460;BME280;54412;51.206;6.888;2022-08-01T11:38:43;101066.78;;;28.16;44.02
10460;BME280;54412;51.206;6.888;2022-08-01T11:41:29;101063.84;;;27.56;43.88
10460;BME280;54412;51.206;6.888;2022-08-01T11:47:03;101055.09;;;27.84;43.47
10460;BME280;54412;51.206;6.888;2022-08-01T11:52:08;101063.22;;;28.38;41.12
10460;BME280;54412;51.206;6.888;2022-08-01T11:57:26;101060.81;;;28.20;41.46
10460;BME280;54412;51.206;6.888;2022-08-01T11:59:57;101059.06;;;28.50;39.64
10460;BME280;54412;51.206;6.888;2022-08-01T12:02:29;101057.50;;;28.33;39.08
10460;BME280;54412;51.206;6.888;2022-08-01T12:07:29;101056.00;;;28.75;39.86
10460;BME280;54412;51.206;6.888;2022-08-01T12:10:02;101057.53;;;28.55;39.28
10460;BME280;54412;51.206;6.888;2022-08-01T12:12:29;101056.06;;;28.45;40.45
10460;BME280;54412;51.206;6.888;2022-08-01T12:14:59;101055.41;;;28.65;41.21
10460;BME280;54412;51.206;6.888;2022-08-01T12:17:38;101060.75;;;28.06;41.70
10460;BME280;54412;51.206;6.888;2022-08-01T12:20:07;101061.75;;;27.74;42.24
10460;BME280;54412;51.206;6.888;2022-08-01T12:22:34;101062.25;;;27.69;43.28
10460;BME280;54412;51.206;6.888;2022-08-01T12:25:09;101059.16;;;27.42;44.79
10460;BME280;54412;51.206;6.888;2022-08-01T12:27:38;101068.03;;;27.66;44.76
10460;BME280;54412;51.206;6.888;2022-08-01T12:30:19;101055.22;;;27.83;45.42
10460;BME280;54412;51.206;6.888;2022-08-01T12:32:49;101060.19;;;28.10;44.82
10460;BME280;54412;51.206;6.888;2022-08-01T12:35:21;101053.72;;;28.42;45.04
10460;BME280;54412;51.206;6.888;2022-08-01T12:37:58;101050.81;;;28.66;44.04
10460;BME280;54412;51.206;6.888;2022-08-01T12:40:28;101046.66;;;28.78;44.16
10460;BME280;54412;51.206;6.888;2022-08-01T12:42:58;101055.13;;;28.98;43.62
10460;BME280;54412;51.206;6.888;2022-08-01T12:45:33;101054.47;;;29.10;42.25
10460;BME280;54412;51.206;6.888;2022-08-01T12:48:01;101049.84;;;28.81;42.05
10460;BME280;54412;51.206;6.888;2022-08-01T12:50:30;101052.03;;;28.63;41.65
10460;BME280;54412;51.206;6.888;2022-08-01T12:52:58;101047.41;;;28.87;42.32
10460;BME280;54412;51.206;6.888;2022-08-01T12:55:26;101053.72;;;28.64;42.85
10460;BME280;54412;51.206;6.888;2022-08-01T12:58:12;101048.34;;;28.94;42.06
10460;BME280;54412;51.206;6.888;2022-08-01T13:00:40;101056.81;;;28.61;42.75
10460;BME280;54412;51.206;6.888;2022-08-01T13:03:12;101057.91;;;28.90;41.48
10460;BME280;54412;51.206;6.888;2022-08-01T13:05:53;101046.19;;;29.04;41.40
10460;BME280;54412;51.206;6.888;2022-08-01T13:08:30;101048.56;;;29.07;41.21
10460;BME280;54412;51.206;6.888;2022-08-01T13:11:11;101058.84;;;29.34;39.46
10460;BME280;54412;51.206;6.888;2022-08-01T13:13:50;101054.25;;;28.97;40.03
10460;BME280;54412;51.206;6.888;2022-08-01T13:16:24;101062.03;;;28.40;41.26
10460;BME280;54412;51.206;6.888;2022-08-01T13:18:52;101060.03;;;28.12;42.59
10460;BME280;54412;51.206;6.888;2022-08-01T13:21:20;101062.00;;;27.95;44.17
10460;BME280;54412;51.206;6.888;2022-08-01T13:24:12;101058.13;;;27.81;43.94
10460;BME280;54412;51.206;6.888;2022-08-01T13:26:41;101054.34;;;27.60;43.56
10460;BME280;54412;51.206;6.888;2022-08-01T13:29:09;101061.41;;;27.30;44.64
10460;BME280;54412;51.206;6.888;2022-08-01T13:31:37;101061.22;;;27.32;45.12
10460;BME280;54412;51.206;6.888;2022-08-01T13:34:03;101051.50;;;27.45;44.60
10460;BME280;54412;51.206;6.888;2022-08-01T13:36:29;101067.16;;;27.74;44.74